sensor_id;sensor_type;location;lat;lon;timestamp;pressure;altitude;pressure_sealevel;temperature;humidity
72285;BME280;60220;53.552;10.092;2023-04-29T00:01:32;100842.75;;;10.17;83.34
72285;BME280;60220;53.552;10.092;2023-04-29T00:03:59;100844.84;;;9.80;83.84
72285;BME280;60220;53.552;10.092;2023-04-29T00:06:26;100838.38;;;10.18;83.23
72285;BME280;60220;53.552;10.092;2023-04-29T00:08:53;100849.16;;;9.84;82.88
72285;BME280;60220;53.552;10.092;2023-04-29T00:11:22;100844.94;;;9.64;84.42
72285;BME280;60220;53.552;10.092;2023-04-29T00:13:50;100841.47;;;9.63;84.83
72285;BME280;60220;53.552;10.092;2023-04-29T00:16:21;100846.94;;;10.36;84.14
72285;BME280;60220;53.552;10.092;2023-04-29T00:18:48;100848.00;;;10.20;83.18
72285;BME280;60220;53.552;10.092;2023-04-29T00:21:14;100850.00;;;9.89;83.28
72285;BME280;60220;53.552;10.092;2023-04-29T00:23:41;100853.25;;;10.14;83.33
72285;BME280;60220;53.552;10.092;2023-04-29T00:26:08;100854.84;;;10.32;82.69
72285;BME280;60220;53.552;10.092;2023-04-29T00:28:34;100854.13;;;10.21;82.38
72285;BME280;60220;53.552;10.092;2023-04-29T00:31:01;100847.25;;;10.02;82.66
72285;BME280;60220;53.552;10.092;2023-04-29T00:33:29;100850.66;;;10.13;82.41
72285;BME280;60220;53.552;10.092;2023-04-29T00:35:57;100858.34;;;10.34;82.28
72285;BME280;60220;53.552;10.092;2023-04-29T00:38:23;100848.13;;;10.04;83.60
72285;BME280;60220;53.552;10.092;2023-04-29T00:40:52;100860.25;;;10.14;85.02
72285;BME280;60220;53.552;10.092;2023-04-29T00:43:19;100861.88;;;10.30;83.88
72285;BME280;60220;53.552;10.092;2023-04-29T00:45:50;100866.38;;;10.14;84.75
72285;BME280;60220;53.552;10.092;2023-04-29T00:48:18;100872.94;;;10.59;83.17
72285;BME280;60220;53.552;10.092;2023-04-29T00:50:46;100874.00;;;10.43;81.42
72285;BME280;60220;53.552;10.092;2023-04-29T00:53:13;100880.94;;;10.47;82.60
72285;BME280;60220;53.552;10.092;2023-04-29T00:55:40;100879.59;;;10.04;83.16
72285;BME280;60220;53.552;10.092;2023-04-29T00:58:09;100875.94;;;10.26;82.19
72285;BME280;60220;53.552;10.092;2023-04-29T01:00:36;100886.63;;;9.99;83.16
72285;BME280;60220;53.552;10.092;2023-04-29T01:03:04;100888.22;;;10.15;83.40
72285;BME280;60220;53.552;10.092;2023-04-29T01:05:33;100888.97;;;10.32;82.82
72285;BME280;60220;53.552;10.092;2023-04-29T01:08:12;100898.72;;;10.18;83.70
72285;BME280;60220;53.552;10.092;2023-04-29T01:10:44;100896.16;;;10.09;83.05
72285;BME280;60220;53.552;10.092;2023-04-29T01:13:17;100902.63;;;10.66;81.69
72285;BME280;60220;53.552;10.092;2023-04-29T01:15:54;100899.53;;;10.23;81.96
72285;BME280;60220;53.552;10.092;2023-04-29T01:18:27;100906.69;;;10.03;82.84
72285;BME280;60220;53.552;10.092;2023-04-29T01:20:55;100903.03;;;10.25;82.56
72285;BME280;60220;53.552;10.092;2023-04-29T01:23:25;100896.19;;;10.04;82.69
72285;BME280;60220;53.552;10.092;2023-04-29T01:25:52;100907.03;;;10.62;81.99
72285;BME280;60220;53.552;10.092;2023-04-29T01:28:32;100902.69;;;10.60;80.87
72285;BME280;60220;53.552;10.092;2023-04-29T01:31:06;100907.13;;;10.52;80.99
72285;BME280;60220;53.552;10.092;2023-04-29T01:33:40;100903.09;;;10.17;82.10
72285;BME280;60220;53.552;10.092;2023-04-29T01:36:22;100915.78;;;10.61;82.39
72285;BME280;60220;53.552;10.092;2023-04-29T01:39:06;100918.06;;;10.92;81.34
72285;BME280;60220;53.552;10.092;2023-04-29T01:41:42;100919.16;;;10.72;80.82
72285;BME280;60220;53.552;10.092;2023-04-29T01:44:14;100917.72;;;10.44;82.10
72285;BME280;60220;53.552;10.092;2023-04-29T01:46:49;100920.75;;;9.96;82.90
72285;BME280;60220;53.552;10.092;2023-04-29T01:49:19;100932.56;;;10.47;82.80
72285;BME280;60220;53.552;10.092;2023-04-29T01:51:46;100921.78;;;10.74;80.85
72285;BME280;60220;53.552;10.092;2023-04-29T01:54:14;100928.53;;;10.02;82.33
72285;BME280;60220;53.552;10.092;2023-04-29T01:56:41;100930.06;;;10.36;81.56
72285;BME280;60220;53.552;10.092;2023-04-29T01:59:08;100922.97;;;10.41;81.42
72285;BME280;60220;53.552;10.092;2023-04-29T02:01:35;100922.25;;;10.27;82.08
72285;BME280;60220;53.552;10.092;2023-04-29T02:04:02;100930.69;;;10.59;81.26
72285;BME280;60220;53.552;10.092;2023-04-29T02:06:28;100933.47;;;10.44;81.22
72285;BME280;60220;53.552;10.092;2023-04-29T02:08:56;100943.09;;;10.42;81.17
72285;BME280;60220;53.552;10.092;2023-04-29T02:11:24;100948.31;;;10.47;81.55
72285;BME280;60220;53.552;10.092;2023-04-29T02:13:53;100954.41;;;10.47;81.55
72285;BME280;60220;53.552;10.092;2023-04-29T02:16:21;100957.56;;;10.86;80.07
72285;BME280;60220;53.552;10.092;2023-04-29T02:18:47;100948.75;;;10.90;79.66
72285;BME280;60220;53.552;10.092;2023-04-29T02:21:14;100955.78;;;11.56;78.53
72285;BME280;60220;53.552;10.092;2023-04-29T02:23:41;100954.94;;;10.81;78.48
72285;BME280;60220;53.552;10.092;2023-04-29T02:26:10;100953.19;;;10.83;79.47
72285;BME280;60220;53.552;10.092;2023-04-29T02:28:39;100957.72;;;10.70;79.51
72285;BME280;60220;53.552;10.092;2023-04-29T02:31:06;100968.13;;;10.79;79.71
72285;BME280;60220;53.552;10.092;2023-04-29T02:33:33;100976.78;;;10.89;80.33
72285;BME280;60220;53.552;10.092;2023-04-29T02:36:00;100977.13;;;10.54;80.03
72285;BME280;60220;53.552;10.092;2023-04-29T02:38:29;100973.56;;;10.58;79.68
72285;BME280;60220;53.552;10.092;2023-04-29T02:40:56;100977.22;;;10.42;79.92
72285;BME280;60220;53.552;10.092;2023-04-29T02:43:22;100982.59;;;10.30;80.01
72285;BME280;60220;53.552;10.092;2023-04-29T02:45:50;100988.44;;;10.56;80.80
72285;BME280;60220;53.552;10.092;2023-04-29T02:48:17;100991.28;;;10.35;79.89
72285;BME280;60220;53.552;10.092;2023-04-29T02:50:44;100988.44;;;10.56;81.28
72285;BME280;60220;53.552;10.092;2023-04-29T02:53:11;100990.28;;;10.50;80.23
72285;BME280;60220;53.552;10.092;2023-04-29T02:55:37;100987.75;;;10.38;80.52
72285;BME280;60220;53.552;10.092;2023-04-29T02:58:04;100990.06;;;10.74;79.98
72285;BME280;60220;53.552;10.092;2023-04-29T03:00:31;100992.56;;;10.85;79.02
72285;BME280;60220;53.552;10.092;2023-04-29T03:02:59;100995.25;;;10.77;78.53
72285;BME280;60220;53.552;10.092;2023-04-29T03:05:26;100997.16;;;10.61;78.89
72285;BME280;60220;53.552;10.092;2023-04-29T03:07:54;100999.63;;;10.79;80.20
72285;BME280;60220;53.552;10.092;2023-04-29T03:10:21;101001.13;;;11.05;78.47
72285;BME280;60220;53.552;10.092;2023-04-29T03:12:48;101005.63;;;10.92;78.86
72285;BME280;60220;53.552;10.092;2023-04-29T03:15:17;101003.19;;;10.72;78.14
72285;BME280;60220;53.552;10.092;2023-04-29T03:17:44;101010.28;;;10.64;79.95
72285;BME280;60220;53.552;10.092;2023-04-29T03:20:13;101008.56;;;10.60;79.19
72285;BME280;60220;53.552;10.092;2023-04-29T03:22:40;101017.44;;;10.44;79.12
72285;BME280;60220;53.552;10.092;2023-04-29T03:25:11;101022.56;;;10.58;80.12
72285;BME280;60220;53.552;10.092;2023-04-29T03:27:40;101015.75;;;10.40;79.09
72285;BME280;60220;53.552;10.092;2023-04-29T03:30:08;101026.75;;;10.78;78.34
72285;BME280;60220;53.552;10.092;2023-04-29T03:32:34;101027.00;;;10.51;79.13
72285;BME280;60220;53.552;10.092;2023-04-29T03:35:01;101029.03;;;10.16;79.56
72285;BME280;60220;53.552;10.092;2023-04-29T03:37:29;101029.84;;;10.24;80.46
72285;BME280;60220;53.552;10.092;2023-04-29T03:39:56;101033.16;;;10.47;78.73
72285;BME280;60220;53.552;10.092;2023-04-29T03:42:22;101035.94;;;10.29;79.50
72285;BME280;60220;53.552;10.092;2023-04-29T03:44:55;101045.38;;;10.51;79.22
72285;BME280;60220;53.552;10.092;2023-04-29T03:47:22;101042.66;;;10.62;78.64
72285;BME280;60220;53.552;10.092;2023-04-29T03:49:48;101046.94;;;10.73;78.77
72285;BME280;60220;53.552;10.092;2023-04-29T03:52:17;101049.69;;;10.57;78.53
72285;BME280;60220;53.552;10.092;2023-04-29T03:54:46;101045.53;;;10.31;79.99
72285;BME280;60220;53.552;10.092;2023-04-29T03:57:13;101047.09;;;10.55;78.54
72285;BME280;60220;53.552;10.092;2023-04-29T03:59:39;101053.31;;;10.45;78.17
72285;BME280;60220;53.552;10.092;2023-04-29T04:02:06;101052.38;;;10.54;78.91
72285;BME280;60220;53.552;10.092;2023-04-29T04:04:33;101054.94;;;10.57;78.17
72285;BME280;60220;53.552;10.092;2023-04-29T04:06:59;101061.00;;;10.69;77.87
72285;BME280;60220;53.552;10.092;2023-04-29T04:09:28;101068.00;;;10.70;78.17
72285;BME280;60220;53.552;10.092;2023-04-29T04:11:58;101079.53;;;10.47;77.62
72285;BME280;60220;53.552;10.092;2023-04-29T04:14:25;101077.69;;;10.59;77.55
72285;BME280;60220;53.552;10.092;2023-04-29T04:16:52;101082.41;;;10.06;78.68
72285;BME280;60220;53.552;10.092;2023-04-29T04:19:19;101074.00;;;10.82;78.16
72285;BME280;60220;53.552;10.092;2023-04-29T04:21:45;101087.59;;;10.21;78.15
72285;BME280;60220;53.552;10.092;2023-04-29T04:24:14;101090.69;;;10.74;78.00
72285;BME280;60220;53.552;10.092;2023-04-29T04:26:40;101099.78;;;10.28;78.22
72285;BME280;60220;53.552;10.092;2023-04-29T04:29:08;101093.44;;;10.61;78.32
72285;BME280;60220;53.552;10.092;2023-04-29T04:31:35;101097.94;;;10.42;78.06
72285;BME280;60220;53.552;10.092;2023-04-29T04:34:04;101103.91;;;10.64;79.21
72285;BME280;60220;53.552;10.092;2023-04-29T04:36:31;101110.28;;;10.28;78.64
72285;BME280;60220;53.552;10.092;2023-04-29T04:38:57;101116.22;;;10.53;78.54
72285;BME280;60220;53.552;10.092;2023-04-29T04:41:24;101118.13;;;10.32;79.00
72285;BME280;60220;53.552;10.092;2023-04-29T04:43:51;101113.84;;;10.21;79.21
72285;BME280;60220;53.552;10.092;2023-04-29T04:46:19;101116.22;;;10.56;78.92
72285;BME280;60220;53.552;10.092;2023-04-29T04:48:48;101123.34;;;10.39;78.50
72285;BME280;60220;53.552;10.092;2023-04-29T04:51:17;101132.19;;;10.13;79.56
72285;BME280;60220;53.552;10.092;2023-04-29T04:53:47;101139.03;;;10.45;78.97
72285;BME280;60220;53.552;10.092;2023-04-29T04:56:14;101136.53;;;10.25;79.38
72285;BME280;60220;53.552;10.092;2023-04-29T04:58:41;101143.31;;;10.56;78.11
72285;BME280;60220;53.552;10.092;2023-04-29T05:01:07;101150.47;;;10.36;78.76
72285;BME280;60220;53.552;10.092;2023-04-29T05:03:38;101153.81;;;10.59;78.45
72285;BME280;60220;53.552;10.092;2023-04-29T05:06:04;101146.78;;;10.61;78.49
72285;BME280;60220;53.552;10.092;2023-04-29T05:08:31;101159.13;;;10.47;77.97
72285;BME280;60220;53.552;10.092;2023-04-29T05:10:58;101163.69;;;10.21;77.93
72285;BME280;60220;53.552;10.092;2023-04-29T05:13:25;101167.16;;;10.18;79.64
72285;BME280;60220;53.552;10.092;2023-04-29T05:15:54;101169.91;;;9.77;80.77
72285;BME280;60220;53.552;10.092;2023-04-29T05:18:21;101166.28;;;10.24;79.65
72285;BME280;60220;53.552;10.092;2023-04-29T05:20:51;101175.06;;;10.02;79.44
72285;BME280;60220;53.552;10.092;2023-04-29T05:23:18;101179.31;;;10.39;78.44
72285;BME280;60220;53.552;10.092;2023-04-29T05:25:45;101175.72;;;10.55;78.11
72285;BME280;60220;53.552;10.092;2023-04-29T05:28:11;101180.28;;;10.20;77.55
72285;BME280;60220;53.552;10.092;2023-04-29T05:30:38;101194.06;;;10.60;77.43
72285;BME280;60220;53.552;10.092;2023-04-29T05:33:06;101192.25;;;10.66;77.20
72285;BME280;60220;53.552;10.092;2023-04-29T05:35:32;101195.75;;;10.68;77.96
72285;BME280;60220;53.552;10.092;2023-04-29T05:38:00;101189.81;;;10.38;77.00
72285;BME280;60220;53.552;10.092;2023-04-29T05:40:27;101197.72;;;10.36;77.84
72285;BME280;60220;53.552;10.092;2023-04-29T05:42:54;101195.84;;;10.52;76.09
72285;BME280;60220;53.552;10.092;2023-04-29T05:45:20;101196.66;;;10.61;75.54
72285;BME280;60220;53.552;10.092;2023-04-29T05:47:47;101207.97;;;10.72;75.49
72285;BME280;60220;53.552;10.092;2023-04-29T05:50:14;101196.50;;;10.89;74.77
72285;BME280;60220;53.552;10.092;2023-04-29T05:52:41;101211.47;;;10.77;74.37
72285;BME280;60220;53.552;10.092;2023-04-29T05:55:09;101209.91;;;10.42;74.56
72285;BME280;60220;53.552;10.092;2023-04-29T05:57:36;101206.38;;;10.47;75.67
72285;BME280;60220;53.552;10.092;2023-04-29T06:00:06;101210.84;;;10.34;76.37
72285;BME280;60220;53.552;10.092;2023-04-29T06:02:37;101212.94;;;11.15;74.68
72285;BME280;60220;53.552;10.092;2023-04-29T06:05:05;101222.88;;;10.75;74.10
72285;BME280;60220;53.552;10.092;2023-04-29T06:07:31;101221.78;;;11.02;73.95
72285;BME280;60220;53.552;10.092;2023-04-29T06:09:58;101224.44;;;10.99;72.79
72285;BME280;60220;53.552;10.092;2023-04-29T06:12:29;101218.88;;;11.40;71.30
72285;BME280;60220;53.552;10.092;2023-04-29T06:14:55;101236.59;;;11.15;72.32
72285;BME280;60220;53.552;10.092;2023-04-29T06:17:22;101238.59;;;10.78;72.51
72285;BME280;60220;53.552;10.092;2023-04-29T06:19:49;101239.38;;;10.94;71.60
72285;BME280;60220;53.552;10.092;2023-04-29T06:22:18;101243.38;;;11.42;71.68
72285;BME280;60220;53.552;10.092;2023-04-29T06:24:47;101241.50;;;11.56;69.88
72285;BME280;60220;53.552;10.092;2023-04-29T06:27:16;101243.28;;;11.52;69.49
72285;BME280;60220;53.552;10.092;2023-04-29T06:29:44;101242.19;;;11.79;69.07
72285;BME280;60220;53.552;10.092;2023-04-29T06:32:13;101241.41;;;11.66;68.27
72285;BME280;60220;53.552;10.092;2023-04-29T06:34:40;101248.66;;;11.39;69.34
72285;BME280;60220;53.552;10.092;2023-04-29T06:37:08;101243.19;;;11.63;69.11
72285;BME280;60220;53.552;10.092;2023-04-29T06:39:35;101252.53;;;11.96;68.22
72285;BME280;60220;53.552;10.092;2023-04-29T06:42:02;101248.94;;;12.03;68.84
72285;BME280;60220;53.552;10.092;2023-04-29T06:44:31;101248.41;;;11.68;68.76
72285;BME280;60220;53.552;10.092;2023-04-29T06:46:59;101251.06;;;11.64;68.67
72285;BME280;60220;53.552;10.092;2023-04-29T06:49:25;101251.84;;;11.77;68.20
72285;BME280;60220;53.552;10.092;2023-04-29T06:51:55;101257.25;;;11.56;67.33
72285;BME280;60220;53.552;10.092;2023-04-29T06:54:21;101260.03;;;11.42;67.14
72285;BME280;60220;53.552;10.092;2023-04-29T06:56:48;101272.63;;;10.95;68.96
72285;BME280;60220;53.552;10.092;2023-04-29T06:59:15;101284.31;;;11.75;68.79
72285;BME280;60220;53.552;10.092;2023-04-29T07:01:42;101282.25;;;12.05;67.45
72285;BME280;60220;53.552;10.092;2023-04-29T07:04:10;101284.22;;;11.84;65.92
72285;BME280;60220;53.552;10.092;2023-04-29T07:06:37;101284.69;;;12.91;63.81
72285;BME280;60220;53.552;10.092;2023-04-29T07:09:04;101273.31;;;13.49;62.31
72285;BME280;60220;53.552;10.092;2023-04-29T07:11:31;101284.88;;;13.92;59.91
72285;BME280;60220;53.552;10.092;2023-04-29T07:14:00;101283.28;;;14.74;57.19
72285;BME280;60220;53.552;10.092;2023-04-29T07:16:27;101289.06;;;14.90;58.02
72285;BME280;60220;53.552;10.092;2023-04-29T07:18:53;101287.56;;;14.37;57.74
72285;BME280;60220;53.552;10.092;2023-04-29T07:21:26;101289.19;;;13.46;58.84
72285;BME280;60220;53.552;10.092;2023-04-29T07:23:55;101287.28;;;14.04;57.60
72285;BME280;60220;53.552;10.092;2023-04-29T07:26:23;101289.31;;;14.35;56.05
72285;BME280;60220;53.552;10.092;2023-04-29T07:28:50;101299.31;;;15.05;55.59
72285;BME280;60220;53.552;10.092;2023-04-29T07:31:18;101295.88;;;14.60;57.16
72285;BME280;60220;53.552;10.092;2023-04-29T07:33:45;101302.44;;;15.22;54.54
72285;BME280;60220;53.552;10.092;2023-04-29T07:36:11;101299.97;;;15.53;54.13
72285;BME280;60220;53.552;10.092;2023-04-29T07:38:39;101307.25;;;15.05;53.82
72285;BME280;60220;53.552;10.092;2023-04-29T07:41:06;101308.63;;;14.40;51.90
72285;BME280;60220;53.552;10.092;2023-04-29T07:43:33;101309.41;;;14.45;50.97
72285;BME280;60220;53.552;10.092;2023-04-29T07:46:01;101320.91;;;14.44;50.91
72285;BME280;60220;53.552;10.092;2023-04-29T07:48:30;101313.25;;;14.73;50.79
72285;BME280;60220;53.552;10.092;2023-04-29T07:50:59;101314.91;;;15.17;50.00
72285;BME280;60220;53.552;10.092;2023-04-29T07:53:25;101313.84;;;14.86;49.99
72285;BME280;60220;53.552;10.092;2023-04-29T07:55:55;101320.38;;;15.46;48.05
72285;BME280;60220;53.552;10.092;2023-04-29T07:58:24;101317.38;;;15.97;48.77
72285;BME280;60220;53.552;10.092;2023-04-29T08:00:54;101325.91;;;14.99;49.84
72285;BME280;60220;53.552;10.092;2023-04-29T08:03:23;101328.72;;;15.68;47.88
72285;BME280;60220;53.552;10.092;2023-04-29T08:05:52;101341.03;;;15.69;50.15
72285;BME280;60220;53.552;10.092;2023-04-29T08:08:23;101335.78;;;16.34;48.79
72285;BME280;60220;53.552;10.092;2023-04-29T08:10:49;101348.50;;;16.86;46.05
72285;BME280;60220;53.552;10.092;2023-04-29T08:13:17;101350.81;;;16.67;48.11
72285;BME280;60220;53.552;10.092;2023-04-29T08:15:44;101350.03;;;17.50;45.87
72285;BME280;60220;53.552;10.092;2023-04-29T08:18:13;101356.91;;;17.00;46.42
72285;BME280;60220;53.552;10.092;2023-04-29T08:20:42;101352.41;;;16.41;45.58
72285;BME280;60220;53.552;10.092;2023-04-29T08:23:09;101356.16;;;16.33;47.05
72285;BME280;60220;53.552;10.092;2023-04-29T08:25:35;101363.19;;;16.67;46.25
72285;BME280;60220;53.552;10.092;2023-04-29T08:28:02;101367.66;;;16.96;45.81
72285;BME280;60220;53.552;10.092;2023-04-29T08:30:31;101375.59;;;16.66;46.54
72285;BME280;60220;53.552;10.092;2023-04-29T08:32:57;101370.19;;;16.69;46.07
72285;BME280;60220;53.552;10.092;2023-04-29T08:35:24;101376.06;;;16.48;45.77
72285;BME280;60220;53.552;10.092;2023-04-29T08:37:52;101385.88;;;17.37;45.37
72285;BME280;60220;53.552;10.092;2023-04-29T08:40:18;101388.19;;;16.58;45.71
72285;BME280;60220;53.552;10.092;2023-04-29T08:42:47;101386.53;;;16.85;45.33
72285;BME280;60220;53.552;10.092;2023-04-29T08:45:18;101391.72;;;17.19;45.57
72285;BME280;60220;53.552;10.092;2023-04-29T08:47:47;101395.31;;;17.18;45.68
72285;BME280;60220;53.552;10.092;2023-04-29T08:50:15;101398.25;;;16.78;44.78
72285;BME280;60220;53.552;10.092;2023-04-29T08:52:51;101400.03;;;17.36;44.99
72285;BME280;60220;53.552;10.092;2023-04-29T08:55:18;101401.63;;;17.71;42.66
72285;BME280;60220;53.552;10.092;2023-04-29T08:57:45;101402.13;;;17.54;44.78
72285;BME280;60220;53.552;10.092;2023-04-29T09:00:15;101416.19;;;17.86;43.57
72285;BME280;60220;53.552;10.092;2023-04-29T09:02:46;101402.94;;;18.12;43.37
72285;BME280;60220;53.552;10.092;2023-04-29T09:05:15;101400.88;;;17.94;44.82
72285;BME280;60220;53.552;10.092;2023-04-29T09:07:42;101408.19;;;17.87;44.09
72285;BME280;60220;53.552;10.092;2023-04-29T09:10:12;101402.81;;;17.62;45.17
72285;BME280;60220;53.552;10.092;2023-04-29T09:12:39;101401.78;;;17.37;46.25
72285;BME280;60220;53.552;10.092;2023-04-29T09:15:07;101399.47;;;17.54;47.04
72285;BME280;60220;53.552;10.092;2023-04-29T09:17:41;101402.22;;;17.51;44.94
72285;BME280;60220;53.552;10.092;2023-04-29T09:20:28;101414.81;;;17.45;45.80
72285;BME280;60220;53.552;10.092;2023-04-29T09:22:57;101423.47;;;17.51;45.55
72285;BME280;60220;53.552;10.092;2023-04-29T09:25:26;101415.53;;;18.58;45.13
72285;BME280;60220;53.552;10.092;2023-04-29T09:27:53;101418.63;;;18.71;44.23
72285;BME280;60220;53.552;10.092;2023-04-29T09:30:22;101422.69;;;17.77;46.12
72285;BME280;60220;53.552;10.092;2023-04-29T09:33:07;101428.88;;;17.78;46.19
72285;BME280;60220;53.552;10.092;2023-04-29T09:35:34;101416.34;;;16.62;46.74
72285;BME280;60220;53.552;10.092;2023-04-29T09:38:11;101428.56;;;16.99;45.90
72285;BME280;60220;53.552;10.092;2023-04-29T09:40:40;101432.34;;;17.50;47.27
72285;BME280;60220;53.552;10.092;2023-04-29T09:43:15;101430.34;;;16.67;46.97
72285;BME280;60220;53.552;10.092;2023-04-29T09:45:43;101424.19;;;16.98;48.97
72285;BME280;60220;53.552;10.092;2023-04-29T09:48:12;101425.91;;;17.59;46.81
72285;BME280;60220;53.552;10.092;2023-04-29T09:50:41;101427.59;;;17.61;48.81
72285;BME280;60220;53.552;10.092;2023-04-29T09:53:09;101432.06;;;17.30;47.33
72285;BME280;60220;53.552;10.092;2023-04-29T09:55:58;101434.81;;;16.98;46.10
72285;BME280;60220;53.552;10.092;2023-04-29T09:58:30;101440.28;;;16.92;46.57
72285;BME280;60220;53.552;10.092;2023-04-29T10:01:02;101448.34;;;16.19;47.81
72285;BME280;60220;53.552;10.092;2023-04-29T10:03:31;101444.88;;;15.80;48.61
72285;BME280;60220;53.552;10.092;2023-04-29T10:05:59;101444.72;;;16.23;49.00
72285;BME280;60220;53.552;10.092;2023-04-29T10:08:30;101437.59;;;16.25;47.70
72285;BME280;60220;53.552;10.092;2023-04-29T10:11:00;101433.06;;;16.97;46.56
72285;BME280;60220;53.552;10.092;2023-04-29T10:13:30;101436.28;;;17.08;47.55
72285;BME280;60220;53.552;10.092;2023-04-29T10:16:02;101438.22;;;17.61;44.19
72285;BME280;60220;53.552;10.092;2023-04-29T10:18:34;101424.53;;;16.86;44.73
72285;BME280;60220;53.552;10.092;2023-04-29T10:21:02;101436.19;;;16.46;44.73
72285;BME280;60220;53.552;10.092;2023-04-29T10:23:32;101423.41;;;16.28;44.63
72285;BME280;60220;53.552;10.092;2023-04-29T10:26:01;101435.63;;;16.33;46.70
72285;BME280;60220;53.552;10.092;2023-04-29T10:28:31;101431.28;;;16.31;45.95
72285;BME280;60220;53.552;10.092;2023-04-29T10:31:01;101431.03;;;16.40;45.03
72285;BME280;60220;53.552;10.092;2023-04-29T10:33:30;101430.44;;;16.29;45.31
72285;BME280;60220;53.552;10.092;2023-04-29T10:36:00;101439.69;;;16.81;45.45
72285;BME280;60220;53.552;10.092;2023-04-29T10:38:34;101428.69;;;16.63;45.97
72285;BME280;60220;53.552;10.092;2023-04-29T10:41:09;101440.94;;;16.67;44.36
72285;BME280;60220;53.552;10.092;2023-04-29T10:43:40;101444.16;;;16.45;44.25
72285;BME280;60220;53.552;10.092;2023-04-29T10:46:16;101450.66;;;16.33;44.29
72285;BME280;60220;53.552;10.092;2023-04-29T10:48:43;101443.88;;;16.21;44.54
72285;BME280;60220;53.552;10.092;2023-04-29T10:51:10;101456.00;;;16.65;45.34
72285;BME280;60220;53.552;10.092;2023-04-29T10:53:58;101460.13;;;16.08;44.14
72285;BME280;60220;53.552;10.092;2023-04-29T10:56:36;101449.97;;;16.60;43.81
72285;BME280;60220;53.552;10.092;2023-04-29T10:59:09;101458.38;;;16.42;43.90
72285;BME280;60220;53.552;10.092;2023-04-29T11:01:45;101447.47;;;16.87;44.41
72285;BME280;60220;53.552;10.092;2023-04-29T11:04:13;101455.19;;;16.63;45.59
72285;BME280;60220;53.552;10.092;2023-04-29T11:06:43;101457.78;;;16.65;45.71
72285;BME280;60220;53.552;10.092;2023-04-29T11:09:12;101459.53;;;16.98;46.47
72285;BME280;60220;53.552;10.092;2023-04-29T11:11:48;101464.00;;;17.27;45.02
72285;BME280;60220;53.552;10.092;2023-04-29T11:14:21;101461.25;;;16.33;43.93
72285;BME280;60220;53.552;10.092;2023-04-29T11:16:51;101456.53;;;15.73;46.19
72285;BME280;60220;53.552;10.092;2023-04-29T11:19:18;101471.97;;;16.28;45.90
72285;BME280;60220;53.552;10.092;2023-04-29T11:21:47;101468.63;;;16.20;45.51
72285;BME280;60220;53.552;10.092;2023-04-29T11:24:16;101475.03;;;16.81;45.29
72285;BME280;60220;53.552;10.092;2023-04-29T11:26:44;101470.88;;;16.37;44.87
72285;BME280;60220;53.552;10.092;2023-04-29T11:29:13;101491.22;;;16.35;45.74
72285;BME280;60220;53.552;10.092;2023-04-29T11:31:40;101476.41;;;16.63;44.89
72285;BME280;60220;53.552;10.092;2023-04-29T11:34:06;101481.31;;;16.43;44.34
72285;BME280;60220;53.552;10.092;2023-04-29T11:36:35;101484.47;;;16.23;45.29
72285;BME280;60220;53.552;10.092;2023-04-29T11:39:02;101479.28;;;16.19;45.79
72285;BME280;60220;53.552;10.092;2023-04-29T11:41:31;101481.53;;;16.69;44.52
72285;BME280;60220;53.552;10.092;2023-04-29T11:44:01;101477.16;;;16.33;44.25
72285;BME280;60220;53.552;10.092;2023-04-29T11:46:29;101491.38;;;16.29;45.40
72285;BME280;60220;53.552;10.092;2023-04-29T11:48:57;101488.28;;;16.12;45.24
72285;BME280;60220;53.552;10.092;2023-04-29T11:51:24;101485.91;;;16.00;46.33
72285;BME280;60220;53.552;10.092;2023-04-29T11:53:52;101488.28;;;16.10;45.74
72285;BME280;60220;53.552;10.092;2023-04-29T11:56:20;101489.00;;;16.18;46.56
72285;BME280;60220;53.552;10.092;2023-04-29T11:58:55;101488.03;;;16.21;45.77
72285;BME280;60220;53.552;10.092;2023-04-29T12:01:25;101473.66;;;15.94;45.95
72285;BME280;60220;53.552;10.092;2023-04-29T12:03:56;101480.28;;;16.13;45.51
72285;BME280;60220;53.552;10.092;2023-04-29T12:06:27;101491.09;;;16.04;45.12
72285;BME280;60220;53.552;10.092;2023-04-29T12:08:54;101487.63;;;16.02;44.01
72285;BME280;60220;53.552;10.092;2023-04-29T12:11:22;101490.03;;;16.13;45.10
72285;BME280;60220;53.552;10.092;2023-04-29T12:13:50;101492.22;;;16.31;44.62
72285;BME280;60220;53.552;10.092;2023-04-29T12:16:17;101492.06;;;16.37;44.55
72285;BME280;60220;53.552;10.092;2023-04-29T12:18:45;101494.34;;;16.52;45.04
72285;BME280;60220;53.552;10.092;2023-04-29T12:21:15;101484.59;;;16.87;42.12
72285;BME280;60220;53.552;10.092;2023-04-29T12:23:42;101494.22;;;16.58;43.94
72285;BME280;60220;53.552;10.092;2023-04-29T12:26:11;101502.13;;;16.23;45.63
72285;BME280;60220;53.552;10.092;2023-04-29T12:28:45;101490.22;;;16.74;44.16
72285;BME280;60220;53.552;10.092;2023-04-29T12:31:14;101493.00;;;16.70;44.01
72285;BME280;60220;53.552;10.092;2023-04-29T12:33:45;101494.69;;;17.05;44.39
72285;BME280;60220;53.552;10.092;2023-04-29T12:36:15;101498.25;;;17.04;43.83
72285;BME280;60220;53.552;10.092;2023-04-29T12:38:43;101493.31;;;16.58;42.56
72285;BME280;60220;53.552;10.092;2023-04-29T12:41:13;101488.59;;;17.03;43.14
72285;BME280;60220;53.552;10.092;2023-04-29T12:43:42;101489.00;;;16.18;44.72
72285;BME280;60220;53.552;10.092;2023-04-29T12:46:09;101489.28;;;16.77;44.09
72285;BME280;60220;53.552;10.092;2023-04-29T12:48:37;101489.00;;;16.88;42.08